YM2KBI-20 Weather Reports


Display with metric or nautical units.
time (UTC)temp
F
wind
direction
speed
MPH
gust
MPH
rain 1hr
in
rain 24hr
in
rain mn
in
humidity
%
barometer
mb
20260902200002 95 0 0.0 0.0 0.00 0.00 0.00 29 1007.0
20260902193002 95 0 0.0 0.0 0.00 0.00 0.00 29 1007.0
20260902190002 96 0 0.0 0.0 0.00 0.00 0.00 30 1007.3
20260902183003 95 0 0.0 0.0 0.00 0.00 0.00 30 1007.3
20260902180003 95 0 0.0 0.0 0.00 0.00 0.00 30 1007.2
20260902173003 95 0 0.0 0.0 0.00 0.00 0.00 30 1006.9
20260902170002 96 0 0.0 0.0 0.00 0.00 0.00 30 1006.8
20260902163001 96 0 0.0 0.0 0.00 0.00 0.00 30 1006.7
20260902160003 96 0 0.0 0.0 0.00 0.00 0.00 30 1006.6
20260902153002 96 0 0.0 0.0 0.00 0.00 0.00 29 1006.6
20260902150002 96 0 0.0 0.0 0.00 0.00 0.00 28 1006.6
20260902143002 96 0 0.0 0.0 0.00 0.00 0.00 28 1006.4
20260902140004 96 0 0.0 0.0 0.00 0.00 0.00 28 1006.7
20260902133002 97 0 0.0 0.0 0.00 0.00 0.00 28 1006.7
20260902130002 97 0 0.0 0.0 0.00 0.00 0.00 28 1006.8
20260902123002 97 0 0.0 0.0 0.00 0.00 0.00 28 1006.9
20260902120002 97 0 0.0 0.0 0.00 0.00 0.00 28 1007.1
20260902113004 97 0 0.0 0.0 0.00 0.00 0.00 28 1007.3
20260902110003 97 0 0.0 0.0 0.00 0.00 0.00 28 1007.5
20260902103002 97 0 0.0 0.0 0.00 0.00 0.00 28 1007.8
20260902100002 97 0 0.0 0.0 0.00 0.00 0.00 29 1008.0
20260902093002 96 0 0.0 0.0 0.00 0.00 0.00 29 1008.2
20260902090004 95 0 0.0 0.0 0.00 0.00 0.00 30 1008.4
20260902083002 95 0 0.0 0.0 0.00 0.00 0.00 31 1008.4
20260902080003 94 0 0.0 0.0 0.00 0.00 0.00 32 1008.6
20260902073002 94 0 0.0 0.0 0.00 0.00 0.00 32 1008.7
20260902070002 92 0 0.0 0.0 0.00 0.00 0.00 32 1008.6
20260902064110 84 0 0.0 0.0 0.00 0.00 0.00 38 1008.4
20260902055952 74 0 0.0 0.0 0.00 0.00 0.00 66 715.9
20260902052952 74 0 0.0 0.0 0.00 0.00 0.00 66 715.9
20260902045952 74 0 0.0 0.0 0.00 0.00 0.00 66 715.9
20260902042952 74 0 0.0 0.0 0.00 0.00 0.00 66 715.9
20260902035952 74 0 0.0 0.0 0.00 0.00 0.00 66 715.9
20260902032951 74 0 0.0 0.0 0.00 0.00 0.00 66 715.9
20260902025952 74 0 0.0 0.0 0.00 0.00 0.00 66 715.9
20260902022951 74 0 0.0 0.0 0.00 0.00 0.00 66 715.9
20260902015951 74 0 0.0 0.0 0.00 0.00 0.00 66 715.9
20260902012952 74 0 0.0 0.0 0.00 0.00 0.00 66 715.9
20260902005952 74 0 0.0 0.0 0.00 0.00 0.00 66 715.9
20260902002951 74 0 0.0 0.0 0.00 0.00 0.00 66 715.9
20260901235951 74 0 0.0 0.0 0.00 0.00 0.00 66 715.9
20260901232951 74 0 0.0 0.0 0.00 0.00 0.00 66 715.9
20260901225952 74 0 0.0 0.0 0.00 0.00 0.00 66 715.9
20260901222952 74 0 0.0 0.0 0.00 0.00 0.00 66 715.9
20260901215951 74 0 0.0 0.0 0.00 0.00 0.00 66 715.9
20260901212952 74 0 0.0 0.0 0.00 0.00 0.00 66 715.9
20260901205952 74 0 0.0 0.0 0.00 0.00 0.00 66 715.9
20260901202952 74 0 0.0 0.0 0.00 0.00 0.00 66 715.9